createdAt,value
2019-06-01T00:00:21.209Z,12.58
2019-06-01T00:02:56.469Z,12.56
2019-06-01T00:05:23.569Z,12.80
2019-06-01T00:07:53.107Z,12.61
2019-06-01T00:10:22.696Z,12.86
2019-06-01T00:12:52.269Z,12.86
2019-06-01T00:15:21.888Z,12.73
2019-06-01T00:17:51.763Z,12.52
2019-06-01T00:20:21.271Z,12.63
2019-06-01T00:22:51.782Z,12.48
2019-06-01T00:25:21.446Z,12.51
2019-06-01T00:27:52.813Z,12.58
2019-06-01T00:30:26.892Z,12.57
2019-06-01T00:32:55.235Z,12.60
2019-06-01T00:35:24.929Z,12.89
2019-06-01T00:37:54.705Z,12.82
2019-06-01T00:40:24.355Z,12.68
2019-06-01T00:42:54.093Z,12.69
2019-06-01T00:45:23.741Z,12.46
2019-06-01T00:47:53.543Z,12.52
2019-06-01T00:50:23.191Z,12.38
2019-06-01T00:52:53.455Z,12.36
2019-06-01T00:55:46.001Z,12.41
2019-06-01T00:58:20.894Z,12.32
2019-06-01T01:00:51.991Z,12.51
2019-06-01T01:03:21.760Z,12.44
2019-06-01T01:05:51.260Z,12.62
2019-06-01T01:08:20.763Z,12.69
2019-06-01T01:10:51.070Z,12.64
2019-06-01T01:13:22.330Z,12.52
2019-06-01T01:15:51.861Z,12.49
2019-06-01T01:18:21.366Z,12.62
2019-06-01T01:20:51.957Z,12.62
2019-06-01T01:23:21.647Z,12.57
2019-06-01T01:25:51.142Z,12.63
2019-06-01T01:28:23.846Z,12.34
2019-06-01T01:31:03.096Z,12.43
2019-06-01T01:33:23.088Z,12.42
2019-06-01T01:35:54.100Z,12.54
2019-06-01T01:38:24.979Z,12.38
2019-06-01T01:40:54.583Z,12.50
2019-06-01T01:43:24.166Z,12.40
2019-06-01T01:45:54.830Z,12.30
2019-06-01T01:48:24.683Z,12.39
2019-06-01T01:50:54.373Z,12.22
2019-06-01T01:53:23.913Z,12.14
2019-06-01T01:55:53.552Z,12.10
2019-06-01T01:58:23.054Z,11.92
2019-06-01T02:00:54.535Z,12.12
2019-06-01T02:03:23.848Z,11.97
2019-06-01T02:05:53.380Z,12.07
2019-06-01T02:08:24.664Z,12.18
2019-06-01T02:10:55.405Z,12.19
2019-06-01T02:13:25.225Z,12.21
2019-06-01T02:15:56.198Z,12.12
2019-06-01T02:18:25.768Z,12.02
2019-06-01T02:20:56.290Z,12.10
2019-06-01T02:23:25.694Z,12.08
2019-06-01T02:25:55.200Z,12.08
2019-06-01T02:28:24.816Z,11.87
2019-06-01T02:30:55.981Z,12.04
2019-06-01T02:33:25.702Z,11.96
2019-06-01T02:35:56.290Z,12.05
2019-06-01T02:38:28.768Z,12.13
2019-06-01T02:41:01.182Z,11.91
2019-06-01T02:43:31.404Z,11.98
2019-06-01T02:46:02.739Z,12.07
2019-06-01T02:48:32.753Z,12.13
2019-06-01T02:51:03.970Z,12.29
2019-06-01T02:53:33.513Z,12.18
2019-06-01T02:56:04.282Z,12.03
2019-06-01T02:58:33.944Z,12.14
2019-06-01T03:01:09.047Z,12.18
2019-06-01T03:03:39.815Z,12.10
2019-06-01T03:06:12.473Z,12.04
2019-06-01T03:08:43.580Z,11.92
2019-06-01T03:11:15.513Z,11.93
2019-06-01T03:13:48.003Z,11.88
2019-06-01T03:16:20.528Z,11.94
2019-06-01T03:18:52.669Z,11.85
2019-06-01T03:21:24.491Z,11.86
2019-06-01T03:23:56.991Z,11.83
2019-06-01T03:26:28.961Z,11.84
2019-06-01T03:29:03.253Z,11.72
2019-06-01T03:31:32.697Z,11.73
2019-06-01T03:34:04.415Z,11.88
2019-06-01T03:36:34.949Z,11.79
2019-06-01T03:39:08.887Z,11.94
2019-06-01T03:41:38.662Z,12.07
2019-06-01T03:44:09.737Z,12.05
2019-06-01T03:46:39.360Z,12.16
2019-06-01T03:49:09.771Z,12.31
2019-06-01T03:51:39.598Z,12.44
2019-06-01T03:54:10.165Z,12.77
2019-06-01T03:56:39.868Z,12.61
2019-06-01T03:59:09.519Z,12.49
2019-06-01T04:01:39.109Z,12.84
2019-06-01T04:04:09.331Z,12.73
2019-06-01T04:06:40.244Z,12.99
2019-06-01T04:09:10.084Z,12.94
2019-06-01T04:11:39.484Z,12.87
2019-06-01T04:14:09.843Z,12.94
2019-06-01T04:16:41.284Z,13.02
2019-06-01T04:19:12.193Z,12.86
2019-06-01T04:21:42.938Z,13.19
2019-06-01T04:24:14.123Z,13.35
2019-06-01T04:26:43.802Z,13.21
2019-06-01T04:29:13.439Z,13.14
2019-06-01T04:31:42.967Z,13.14
2019-06-01T04:34:13.133Z,13.12
2019-06-01T04:36:42.575Z,13.05
2019-06-01T04:39:12.457Z,13.01
2019-06-01T04:41:43.099Z,13.04
2019-06-01T04:44:14.200Z,13.06
2019-06-01T04:52:32.936Z,13.28
2019-06-01T05:00:27.662Z,13.32
2019-06-01T05:01:21.307Z,13.18
2019-06-01T05:03:51.109Z,13.23
2019-06-01T05:12:11.449Z,13.35
2019-06-01T05:16:40.950Z,13.40
2019-06-01T05:22:45.659Z,13.45
2019-06-01T05:24:07.208Z,13.53
2019-06-01T05:26:38.687Z,13.73
2019-06-01T05:29:13.793Z,13.64
2019-06-01T05:31:45.171Z,13.57
2019-06-01T05:34:15.927Z,13.60
2019-06-01T05:36:46.019Z,13.80
2019-06-01T05:39:18.570Z,13.52
2019-06-01T05:41:59.245Z,13.69
2019-06-01T05:44:30.625Z,13.60
2019-06-01T05:47:00.543Z,13.58
2019-06-01T05:49:31.741Z,13.94
2019-06-01T05:52:03.871Z,13.68
2019-06-01T05:54:33.604Z,13.87
2019-06-01T05:57:03.283Z,14.07
2019-06-01T05:59:32.941Z,14.19
2019-06-01T06:02:03.938Z,14.22
2019-06-01T06:04:33.795Z,14.23
2019-06-01T06:07:03.637Z,14.42
2019-06-01T06:09:34.836Z,14.48
2019-06-01T06:12:07.892Z,14.44
2019-06-01T06:14:37.562Z,14.50
2019-06-01T06:17:12.368Z,14.54
2019-06-01T06:19:40.341Z,15.03
2019-06-01T06:22:09.849Z,15.81
2019-06-01T06:24:39.354Z,16.30
2019-06-01T06:27:09.041Z,16.64
2019-06-01T06:29:38.674Z,16.78
2019-06-01T06:32:09.344Z,16.97
2019-06-01T06:34:40.867Z,16.64
2019-06-01T06:37:10.378Z,17.63
2019-06-01T06:39:39.945Z,17.77
2019-06-01T06:42:09.456Z,17.80
2019-06-01T06:44:38.957Z,17.81
2019-06-01T06:47:08.449Z,17.96
2019-06-01T06:49:37.878Z,17.70
2019-06-01T06:52:07.473Z,17.57
2019-06-01T06:54:37.089Z,18.24
2019-06-01T06:57:06.520Z,19.01
2019-06-01T06:59:36.094Z,19.18
2019-06-01T07:02:05.697Z,18.75
2019-06-01T07:04:35.199Z,18.97
2019-06-01T07:07:04.931Z,18.66
2019-06-01T07:09:35.896Z,17.49
2019-06-01T07:12:05.486Z,17.50
2019-06-01T07:14:36.342Z,17.84
2019-06-01T07:17:06.149Z,17.80
2019-06-01T07:19:35.771Z,17.97
2019-06-01T07:22:05.428Z,18.08
2019-06-01T07:24:34.850Z,18.28
2019-06-01T07:27:04.582Z,18.44
2019-06-01T07:29:34.036Z,17.96
2019-06-01T07:32:03.630Z,17.82
2019-06-01T07:34:41.943Z,17.41
2019-06-01T07:37:04.909Z,17.69
2019-06-01T07:39:34.540Z,17.67
2019-06-01T07:42:04.307Z,17.88
2019-06-01T07:44:33.836Z,17.75
2019-06-01T07:47:03.690Z,17.56
2019-06-01T07:49:35.927Z,17.87
2019-06-01T07:52:12.699Z,18.07
2019-06-01T07:54:37.023Z,17.79
2019-06-01T07:57:11.418Z,18.66
2019-06-01T07:59:41.016Z,18.65
2019-06-01T08:02:10.668Z,18.25
2019-06-01T08:04:52.573Z,18.28
2019-06-01T08:07:11.541Z,18.58
2019-06-01T08:09:42.796Z,18.42
2019-06-01T08:12:12.516Z,18.13
2019-06-01T08:14:42.175Z,17.77
2019-06-01T08:17:11.928Z,17.63
2019-06-01T08:19:41.501Z,17.83
2019-06-01T08:22:14.837Z,17.92
2019-06-01T08:24:44.865Z,18.04
2019-06-01T08:27:14.449Z,18.23
2019-06-01T08:29:44.160Z,18.00
2019-06-01T08:32:16.910Z,18.35
2019-06-01T08:34:46.520Z,18.65
2019-06-01T08:37:20.467Z,18.68
2019-06-01T08:39:49.980Z,18.52
2019-06-01T08:42:19.557Z,18.61
2019-06-01T08:44:49.045Z,18.49
2019-06-01T08:47:18.764Z,18.49
2019-06-01T08:49:48.295Z,18.47
2019-06-01T08:52:17.728Z,18.85
2019-06-01T08:54:47.577Z,19.16
2019-06-01T08:57:17.129Z,19.77
2019-06-01T08:59:46.703Z,20.30
2019-06-01T09:02:16.232Z,20.06
2019-06-01T09:04:45.695Z,19.76
2019-06-01T09:07:15.663Z,19.47
2019-06-01T09:09:45.337Z,19.68
2019-06-01T09:12:14.893Z,19.40
2019-06-01T09:14:44.383Z,19.60
2019-06-01T09:17:18.343Z,19.84
2019-06-01T09:19:45.401Z,19.37
2019-06-01T09:22:16.342Z,19.32
2019-06-01T09:24:45.882Z,19.64
2019-06-01T09:27:20.016Z,19.59
2019-06-01T09:29:55.445Z,19.22
2019-06-01T09:32:26.122Z,19.21
2019-06-01T09:34:55.602Z,19.60
2019-06-01T09:37:26.437Z,20.31
2019-06-01T09:39:56.076Z,20.29
2019-06-01T09:42:26.712Z,20.67
2019-06-01T09:44:56.538Z,20.87
2019-06-01T09:47:27.105Z,21.05
2019-06-01T09:49:56.806Z,21.15
2019-06-01T09:52:27.399Z,21.33
2019-06-01T09:54:57.421Z,21.52
2019-06-01T09:57:27.674Z,21.52
2019-06-01T09:59:57.644Z,21.10
2019-06-01T10:02:28.065Z,20.95
2019-06-01T10:04:59.474Z,20.80
2019-06-01T10:07:30.964Z,21.16
2019-06-01T10:10:00.614Z,21.35
2019-06-01T10:12:38.206Z,20.98
2019-06-01T10:15:15.458Z,20.99
2019-06-01T10:17:53.047Z,21.08
2019-06-01T10:20:25.656Z,21.19
2019-06-01T10:22:59.922Z,21.01
2019-06-01T10:25:34.932Z,20.85
2019-06-01T10:28:04.739Z,21.16
2019-06-01T10:30:35.694Z,20.59
2019-06-01T10:33:05.538Z,21.14
2019-06-01T10:35:35.249Z,21.11
2019-06-01T10:38:09.981Z,21.29
2019-06-01T10:40:39.925Z,21.68
2019-06-01T10:43:09.582Z,21.37
2019-06-01T10:45:39.912Z,21.56
2019-06-01T10:48:12.262Z,22.04
2019-06-01T10:50:42.855Z,21.88
2019-06-01T10:53:16.055Z,21.81
2019-06-01T10:55:50.789Z,21.68
2019-06-01T10:58:20.662Z,21.58
2019-06-01T11:00:51.338Z,21.90
2019-06-01T11:03:21.132Z,22.02
2019-06-01T11:05:50.910Z,22.00
2019-06-01T11:08:25.790Z,22.30
2019-06-01T11:10:57.033Z,22.68
2019-06-01T11:13:26.673Z,22.55
2019-06-01T11:15:56.159Z,21.62
2019-06-01T11:18:26.879Z,21.31
2019-06-01T11:21:03.714Z,21.14
2019-06-01T11:23:33.373Z,21.17
2019-06-01T11:26:02.992Z,20.75
2019-06-01T11:28:33.828Z,20.79
2019-06-01T11:31:03.469Z,20.82
2019-06-01T11:33:38.184Z,20.46
2019-06-01T11:36:08.162Z,20.34
2019-06-01T11:38:44.858Z,20.38
2019-06-01T11:41:36.378Z,20.88
2019-06-01T11:44:15.493Z,21.33
2019-06-01T11:46:45.281Z,21.68
2019-06-01T11:49:14.970Z,21.93
2019-06-01T11:51:45.316Z,22.03
2019-06-01T11:54:19.822Z,22.27
2019-06-01T11:56:46.555Z,22.00
2019-06-01T11:59:21.286Z,21.95
2019-06-01T12:01:56.696Z,22.15
2019-06-01T12:04:28.320Z,21.90
2019-06-01T12:07:15.746Z,21.83
2019-06-01T12:09:29.214Z,21.62
2019-06-01T12:11:58.902Z,21.74
2019-06-01T12:14:28.476Z,22.10
2019-06-01T12:16:58.114Z,21.80
2019-06-01T12:19:27.671Z,21.97
2019-06-01T12:21:57.388Z,21.82
2019-06-01T12:24:26.952Z,22.07
2019-06-01T12:26:56.676Z,22.22
2019-06-01T12:29:26.461Z,22.36
2019-06-01T12:31:55.981Z,22.36
2019-06-01T12:34:25.490Z,22.04
2019-06-01T12:36:54.984Z,21.80
2019-06-01T12:39:24.617Z,22.01
2019-06-01T12:41:54.034Z,22.30
2019-06-01T12:44:23.595Z,22.11
2019-06-01T12:46:53.105Z,22.00
2019-06-01T12:49:22.844Z,22.29
2019-06-01T12:51:53.100Z,22.40
2019-06-01T12:54:22.740Z,22.45
2019-06-01T12:56:53.132Z,22.55
2019-06-01T12:59:22.793Z,22.78
2019-06-01T13:01:52.501Z,22.72
2019-06-01T13:04:22.179Z,23.01
2019-06-01T13:06:53.785Z,23.11
2019-06-01T13:09:23.461Z,23.37
2019-06-01T13:11:53.181Z,23.40
2019-06-01T13:14:22.699Z,23.05
2019-06-01T13:17:06.646Z,23.07
2019-06-01T13:19:31.547Z,22.57
2019-06-01T13:22:01.023Z,22.27
2019-06-01T13:24:30.442Z,22.19
2019-06-01T13:26:59.941Z,22.36
2019-06-01T13:29:31.151Z,22.92
2019-06-01T13:59:57.910Z,22.40
2019-06-01T14:02:29.882Z,22.08
2019-06-01T14:04:59.498Z,22.29
2019-06-01T14:07:29.053Z,22.39
2019-06-01T14:09:58.632Z,22.19
2019-06-01T14:12:28.200Z,22.12
2019-06-01T14:14:57.674Z,22.02
2019-06-01T14:17:27.310Z,21.84
2019-06-01T14:19:56.823Z,21.72
2019-06-01T14:22:26.421Z,21.84
2019-06-01T14:25:11.853Z,21.89
2019-06-01T14:27:28.813Z,21.99
2019-06-01T14:29:58.315Z,22.11
2019-06-01T14:32:27.753Z,22.25
2019-06-01T14:35:02.467Z,21.94
2019-06-01T14:37:32.336Z,21.91
2019-06-01T14:40:07.650Z,21.72
2019-06-01T14:42:37.524Z,21.62
2019-06-01T14:45:09.834Z,21.56
2019-06-01T14:47:39.327Z,21.57
2019-06-01T14:50:09.457Z,21.52
2019-06-01T14:52:39.050Z,21.44
2019-06-01T14:55:08.953Z,21.47
2019-06-01T14:57:43.770Z,21.45
2019-06-01T15:00:15.582Z,21.46
2019-06-01T15:02:45.927Z,21.27
2019-06-01T15:05:20.724Z,21.19
2019-06-01T15:07:54.467Z,21.17
2019-06-01T15:10:27.207Z,21.14
2019-06-01T15:15:53.420Z,21.22
2019-06-01T15:18:24.667Z,21.32
2019-06-01T15:20:55.856Z,21.30
2019-06-01T15:23:25.619Z,21.48
2019-06-01T15:25:56.421Z,21.50
2019-06-01T15:28:26.279Z,21.46
2019-06-01T15:30:57.113Z,21.65
2019-06-01T15:33:26.813Z,21.79
2019-06-01T15:35:57.614Z,21.79
2019-06-01T15:38:27.389Z,21.55
2019-06-01T15:40:57.972Z,21.48
2019-06-01T15:43:27.741Z,21.36
2019-06-01T15:45:57.577Z,21.25
2019-06-01T15:48:27.394Z,21.17
2019-06-01T15:51:02.308Z,20.90
2019-06-01T15:53:28.324Z,20.77
2019-06-01T15:55:59.185Z,20.75
2019-06-01T15:58:28.920Z,20.62
2019-06-01T16:00:59.239Z,20.67
2019-06-01T16:03:33.843Z,20.58
2019-06-01T16:06:01.331Z,20.50
2019-06-01T16:08:34.747Z,20.51
2019-06-01T16:11:06.603Z,20.60
2019-06-01T16:13:36.307Z,20.60
2019-06-01T16:16:06.610Z,20.40
2019-06-01T16:18:36.187Z,20.40
2019-06-01T16:21:05.851Z,20.42
2019-06-01T16:23:49.551Z,20.28
2019-06-01T16:26:15.638Z,20.30
2019-06-01T16:28:37.908Z,20.35
2019-06-01T16:31:07.343Z,20.31
2019-06-01T16:33:36.839Z,20.35
2019-06-01T16:36:06.680Z,20.30
2019-06-01T16:38:36.261Z,20.16
2019-06-01T16:41:05.839Z,20.25
2019-06-01T16:43:35.523Z,20.24
2019-06-01T16:46:05.975Z,20.15
2019-06-01T16:48:35.799Z,20.08
2019-06-01T16:51:05.875Z,20.10
2019-06-01T16:53:35.544Z,20.04
2019-06-01T16:56:06.343Z,19.93
2019-06-01T16:58:36.017Z,19.92
2019-06-01T17:01:06.694Z,19.83
2019-06-01T17:03:36.458Z,19.74
2019-06-01T17:06:06.878Z,19.60
2019-06-01T17:08:36.544Z,19.63
2019-06-01T17:11:06.924Z,19.76
2019-06-01T17:13:36.684Z,19.80
2019-06-01T17:16:07.217Z,19.35
2019-06-01T17:18:50.104Z,19.35
2019-06-01T17:21:52.332Z,18.91
2019-06-01T17:27:29.172Z,18.96
2019-06-01T17:30:00.330Z,18.46
2019-06-01T17:32:30.398Z,18.29
2019-06-01T17:35:00.718Z,18.33
2019-06-01T17:37:30.425Z,18.33
2019-06-01T17:40:00.062Z,18.20
2019-06-01T17:42:29.581Z,18.11
2019-06-01T17:45:00.708Z,18.17
2019-06-01T17:47:31.017Z,18.08
2019-06-01T17:50:02.277Z,18.01
2019-06-01T17:52:33.263Z,17.91
2019-06-01T17:55:03.278Z,18.02
2019-06-01T17:57:35.063Z,17.97
2019-06-01T18:00:07.781Z,18.03
2019-06-01T18:02:40.715Z,18.07
2019-06-01T18:05:10.415Z,17.95
2019-06-01T18:07:40.054Z,17.91
2019-06-01T18:10:10.169Z,17.84
2019-06-01T18:12:40.147Z,17.81
2019-06-01T18:15:10.255Z,17.71
2019-06-01T18:17:40.267Z,17.62
2019-06-01T18:20:11.009Z,17.67
2019-06-01T18:22:41.152Z,17.69
2019-06-01T18:25:19.564Z,17.73
2019-06-01T18:27:49.175Z,17.67
2019-06-01T18:30:20.528Z,17.57
2019-06-01T18:32:50.807Z,17.60
2019-06-01T18:35:20.382Z,17.53
2019-06-01T18:37:50.030Z,17.15
2019-06-01T18:40:23.787Z,17.42
2019-06-01T18:42:59.750Z,17.33
2019-06-01T18:45:29.432Z,17.30
2019-06-01T18:47:59.123Z,17.46
2019-06-01T18:50:32.352Z,17.41
2019-06-01T18:53:02.085Z,17.30
2019-06-01T18:55:34.848Z,17.14
2019-06-01T18:58:03.919Z,17.02
2019-06-01T19:00:38.635Z,17.05
2019-06-01T19:03:07.028Z,17.09
2019-06-01T19:05:37.524Z,17.01
2019-06-01T19:08:07.318Z,17.16
2019-06-01T19:10:38.646Z,16.88
2019-06-01T19:13:09.767Z,16.83
2019-06-01T19:15:45.494Z,16.79
2019-06-01T19:18:16.789Z,16.57
2019-06-01T19:20:46.397Z,16.52
2019-06-01T19:23:20.260Z,16.47
2019-06-01T19:25:50.574Z,16.41
2019-06-01T19:28:20.239Z,16.33
2019-06-01T19:30:49.934Z,16.64
2019-06-01T19:33:19.745Z,16.57
2019-06-01T19:35:52.093Z,16.21
2019-06-01T19:38:22.525Z,16.05
2019-06-01T19:40:52.087Z,16.08
2019-06-01T19:43:22.368Z,16.26
2019-06-01T19:45:51.983Z,16.29
2019-06-01T19:48:24.981Z,16.24
2019-06-01T19:50:57.608Z,15.92
2019-06-01T19:53:28.688Z,15.73
2019-06-01T19:55:59.282Z,15.88
2019-06-01T19:58:29.022Z,16.03
2019-06-01T20:00:58.706Z,15.94
2019-06-01T20:03:28.397Z,15.76
2019-06-01T20:05:58.040Z,15.52
2019-06-01T20:08:27.733Z,15.54
2019-06-01T20:10:57.280Z,15.71
2019-06-01T20:13:26.924Z,15.76
2019-06-01T20:15:56.582Z,15.65
2019-06-01T20:18:27.119Z,15.67
2019-06-01T20:20:56.595Z,15.52
2019-06-01T20:23:26.185Z,15.69
2019-06-01T20:25:55.848Z,15.78
2019-06-01T20:28:26.791Z,15.67
2019-06-01T20:30:56.379Z,15.45
2019-06-01T20:33:25.966Z,15.36
2019-06-01T20:35:55.411Z,15.33
2019-06-01T20:38:24.846Z,15.34
2019-06-01T20:40:54.300Z,15.47
2019-06-01T20:43:24.825Z,15.20
2019-06-01T20:45:56.752Z,15.37
2019-06-01T20:48:25.839Z,15.16
2019-06-01T20:50:55.310Z,14.96
2019-06-01T20:53:24.880Z,15.21
2019-06-01T20:55:54.471Z,15.08
2019-06-01T20:58:24.946Z,15.14
2019-06-01T21:00:54.705Z,15.35
2019-06-01T21:03:24.475Z,15.34
2019-06-01T21:05:54.135Z,15.18
2019-06-01T21:08:24.160Z,15.08
2019-06-01T21:10:54.070Z,15.14
2019-06-01T21:13:24.249Z,15.01
2019-06-01T21:15:54.011Z,15.03
2019-06-01T21:18:25.039Z,14.92
2019-06-01T21:20:55.927Z,14.93
2019-06-01T21:23:25.556Z,14.91
2019-06-01T21:25:56.129Z,14.99
2019-06-01T21:28:26.000Z,14.91
2019-06-01T21:30:55.747Z,14.76
2019-06-01T21:33:28.593Z,14.75
2019-06-01T21:35:56.501Z,14.91
2019-06-01T21:38:26.164Z,15.09
2019-06-01T21:40:55.752Z,15.19
2019-06-01T21:43:35.025Z,15.23
2019-06-01T21:45:57.890Z,15.21
2019-06-01T21:48:27.511Z,15.05
2019-06-01T21:50:57.022Z,14.78
2019-06-01T21:53:26.722Z,15.17
2019-06-01T21:55:56.362Z,15.35
2019-06-01T21:58:27.007Z,15.32
2019-06-01T22:00:56.609Z,15.43
2019-06-01T22:03:27.345Z,15.37
2019-06-01T22:05:57.284Z,15.23
2019-06-01T22:08:27.529Z,15.16
2019-06-01T22:10:57.577Z,15.02
2019-06-01T22:13:28.608Z,15.04
2019-06-01T22:15:59.714Z,15.23
2019-06-01T22:18:29.257Z,15.13
2019-06-01T22:20:58.686Z,14.88
2019-06-01T22:23:28.295Z,14.79
2019-06-01T22:25:57.775Z,14.65
2019-06-01T22:28:28.471Z,14.40
2019-06-01T22:30:58.396Z,14.44
2019-06-01T22:33:28.752Z,14.32
2019-06-01T22:35:58.622Z,14.54
2019-06-01T22:38:29.022Z,14.60
2019-06-01T22:40:58.449Z,14.54
2019-06-01T22:43:43.423Z,14.38
2019-06-01T22:45:59.195Z,14.33
2019-06-01T22:48:29.138Z,14.35
2019-06-01T22:51:00.230Z,14.19
2019-06-01T22:53:29.836Z,14.18
2019-06-01T22:55:59.528Z,14.02
2019-06-01T22:58:29.621Z,13.93
2019-06-01T23:00:59.470Z,14.11
2019-06-01T23:03:30.209Z,14.26
2019-06-01T23:06:00.135Z,14.30
2019-06-01T23:08:29.635Z,14.12
2019-06-01T23:11:00.454Z,14.15
2019-06-01T23:13:30.352Z,14.03
2019-06-01T23:16:00.186Z,14.29
2019-06-01T23:18:31.996Z,14.29
2019-06-01T23:21:01.613Z,14.06
2019-06-01T23:23:32.329Z,14.02
2019-06-01T23:26:02.801Z,13.97
2019-06-01T23:28:32.545Z,14.14
2019-06-01T23:31:02.302Z,14.43
2019-06-01T23:33:33.161Z,14.33
2019-06-01T23:36:02.730Z,14.20
2019-06-01T23:38:32.800Z,14.31
2019-06-01T23:41:02.807Z,14.36
2019-06-01T23:43:32.979Z,14.25
2019-06-01T23:46:03.148Z,14.08
2019-06-01T23:48:34.165Z,13.91
2019-06-01T23:51:05.367Z,14.04
2019-06-01T23:53:34.875Z,14.30
2019-06-01T23:56:04.675Z,14.20
2019-06-01T23:58:34.712Z,13.93
